sensor_id;sensor_type;location;lat;lon;timestamp;P1;durP1;ratioP1;P2;durP2;ratioP2
16577;SDS011;8401;52.528;13.340;2023-01-15T00:01:48;1.00;;;0.60;;
16577;SDS011;8401;52.528;13.340;2023-01-15T00:04:14;1.33;;;0.90;;
16577;SDS011;8401;52.528;13.340;2023-01-15T00:06:41;0.93;;;0.70;;
16577;SDS011;8401;52.528;13.340;2023-01-15T00:09:08;0.80;;;0.73;;
16577;SDS011;8401;52.528;13.340;2023-01-15T00:11:37;0.80;;;0.50;;
16577;SDS011;8401;52.528;13.340;2023-01-15T00:14:03;1.73;;;0.80;;
16577;SDS011;8401;52.528;13.340;2023-01-15T00:16:29;1.13;;;0.90;;
16577;SDS011;8401;52.528;13.340;2023-01-15T00:18:56;1.00;;;0.53;;
16577;SDS011;8401;52.528;13.340;2023-01-15T00:21:23;2.23;;;0.80;;
16577;SDS011;8401;52.528;13.340;2023-01-15T00:23:51;0.80;;;0.80;;
16577;SDS011;8401;52.528;13.340;2023-01-15T00:26:36;0.60;;;0.50;;
16577;SDS011;8401;52.528;13.340;2023-01-15T00:29:22;0.57;;;0.50;;
16577;SDS011;8401;52.528;13.340;2023-01-15T00:31:52;1.07;;;0.60;;
16577;SDS011;8401;52.528;13.340;2023-01-15T00:34:37;1.97;;;1.10;;
16577;SDS011;8401;52.528;13.340;2023-01-15T00:37:02;1.57;;;1.00;;
16577;SDS011;8401;52.528;13.340;2023-01-15T00:39:28;0.70;;;0.70;;
16577;SDS011;8401;52.528;13.340;2023-01-15T00:41:54;1.00;;;0.60;;
16577;SDS011;8401;52.528;13.340;2023-01-15T00:44:20;1.37;;;0.93;;
16577;SDS011;8401;52.528;13.340;2023-01-15T00:46:46;0.90;;;0.80;;
16577;SDS011;8401;52.528;13.340;2023-01-15T00:49:12;1.27;;;0.70;;
16577;SDS011;8401;52.528;13.340;2023-01-15T00:51:38;1.00;;;0.60;;
16577;SDS011;8401;52.528;13.340;2023-01-15T00:54:04;1.10;;;0.50;;
16577;SDS011;8401;52.528;13.340;2023-01-15T00:56:30;2.47;;;0.60;;
16577;SDS011;8401;52.528;13.340;2023-01-15T00:58:56;1.10;;;0.70;;
16577;SDS011;8401;52.528;13.340;2023-01-15T01:01:22;0.97;;;0.80;;
16577;SDS011;8401;52.528;13.340;2023-01-15T01:03:48;1.90;;;0.63;;
16577;SDS011;8401;52.528;13.340;2023-01-15T01:06:16;0.83;;;0.53;;
16577;SDS011;8401;52.528;13.340;2023-01-15T01:08:43;0.73;;;0.60;;
16577;SDS011;8401;52.528;13.340;2023-01-15T01:11:10;1.87;;;1.00;;
16577;SDS011;8401;52.528;13.340;2023-01-15T01:13:41;0.73;;;0.40;;
16577;SDS011;8401;52.528;13.340;2023-01-15T01:16:27;0.90;;;0.60;;
16577;SDS011;8401;52.528;13.340;2023-01-15T01:18:54;0.80;;;0.50;;
16577;SDS011;8401;52.528;13.340;2023-01-15T01:21:21;0.70;;;0.50;;
16577;SDS011;8401;52.528;13.340;2023-01-15T01:23:47;0.77;;;0.67;;
16577;SDS011;8401;52.528;13.340;2023-01-15T01:26:12;1.60;;;0.70;;
16577;SDS011;8401;52.528;13.340;2023-01-15T01:28:39;0.40;;;0.30;;
16577;SDS011;8401;52.528;13.340;2023-01-15T01:31:06;0.83;;;0.50;;
16577;SDS011;8401;52.528;13.340;2023-01-15T01:33:31;0.90;;;0.50;;
16577;SDS011;8401;52.528;13.340;2023-01-15T01:35:57;1.23;;;0.63;;
16577;SDS011;8401;52.528;13.340;2023-01-15T01:38:22;0.90;;;0.63;;
16577;SDS011;8401;52.528;13.340;2023-01-15T01:40:48;1.10;;;0.70;;
16577;SDS011;8401;52.528;13.340;2023-01-15T01:43:18;0.77;;;0.60;;
16577;SDS011;8401;52.528;13.340;2023-01-15T01:45:51;0.97;;;0.40;;
16577;SDS011;8401;52.528;13.340;2023-01-15T01:48:17;0.77;;;0.60;;
16577;SDS011;8401;52.528;13.340;2023-01-15T01:50:46;1.63;;;0.83;;
16577;SDS011;8401;52.528;13.340;2023-01-15T01:53:19;1.73;;;1.00;;
16577;SDS011;8401;52.528;13.340;2023-01-15T01:55:48;0.97;;;0.60;;
16577;SDS011;8401;52.528;13.340;2023-01-15T01:58:15;0.67;;;0.47;;
16577;SDS011;8401;52.528;13.340;2023-01-15T02:00:44;0.73;;;0.50;;
16577;SDS011;8401;52.528;13.340;2023-01-15T02:03:12;0.40;;;0.40;;
16577;SDS011;8401;52.528;13.340;2023-01-15T02:05:39;0.77;;;0.50;;
16577;SDS011;8401;52.528;13.340;2023-01-15T02:08:18;2.27;;;0.40;;
16577;SDS011;8401;52.528;13.340;2023-01-15T02:10:44;0.60;;;0.37;;
16577;SDS011;8401;52.528;13.340;2023-01-15T02:13:34;1.30;;;0.70;;
16577;SDS011;8401;52.528;13.340;2023-01-15T02:18:46;2.43;;;0.50;;
16577;SDS011;8401;52.528;13.340;2023-01-15T02:21:41;0.43;;;0.37;;
16577;SDS011;8401;52.528;13.340;2023-01-15T02:24:16;0.30;;;0.30;;
16577;SDS011;8401;52.528;13.340;2023-01-15T02:26:57;0.43;;;0.40;;
16577;SDS011;8401;52.528;13.340;2023-01-15T02:29:33;0.70;;;0.50;;
16577;SDS011;8401;52.528;13.340;2023-01-15T02:32:16;0.83;;;0.30;;
16577;SDS011;8401;52.528;13.340;2023-01-15T02:35:01;0.60;;;0.37;;
16577;SDS011;8401;52.528;13.340;2023-01-15T02:37:32;3.07;;;0.50;;
16577;SDS011;8401;52.528;13.340;2023-01-15T02:40:01;0.77;;;0.60;;
16577;SDS011;8401;52.528;13.340;2023-01-15T02:42:29;0.63;;;0.33;;
16577;SDS011;8401;52.528;13.340;2023-01-15T02:44:57;0.40;;;0.40;;
16577;SDS011;8401;52.528;13.340;2023-01-15T02:47:28;0.40;;;0.30;;
16577;SDS011;8401;52.528;13.340;2023-01-15T02:49:59;1.80;;;0.30;;
16577;SDS011;8401;52.528;13.340;2023-01-15T02:52:30;0.37;;;0.37;;
16577;SDS011;8401;52.528;13.340;2023-01-15T02:55:05;0.50;;;0.30;;
16577;SDS011;8401;52.528;13.340;2023-01-15T02:57:36;0.83;;;0.47;;
16577;SDS011;8401;52.528;13.340;2023-01-15T03:00:04;0.20;;;0.20;;
16577;SDS011;8401;52.528;13.340;2023-01-15T03:02:35;1.00;;;0.40;;
16577;SDS011;8401;52.528;13.340;2023-01-15T03:05:07;0.27;;;0.27;;
16577;SDS011;8401;52.528;13.340;2023-01-15T03:07:56;0.73;;;0.47;;
16577;SDS011;8401;52.528;13.340;2023-01-15T03:10:29;1.63;;;0.50;;
16577;SDS011;8401;52.528;13.340;2023-01-15T03:13:00;0.30;;;0.30;;
16577;SDS011;8401;52.528;13.340;2023-01-15T03:16:10;0.23;;;0.23;;
16577;SDS011;8401;52.528;13.340;2023-01-15T03:21:39;2.17;;;0.30;;
16577;SDS011;8401;52.528;13.340;2023-01-15T03:24:29;6.10;;;0.60;;
16577;SDS011;8401;52.528;13.340;2023-01-15T03:26:59;3.00;;;1.60;;
16577;SDS011;8401;52.528;13.340;2023-01-15T03:29:27;1.30;;;0.80;;
16577;SDS011;8401;52.528;13.340;2023-01-15T03:31:55;2.23;;;1.20;;
16577;SDS011;8401;52.528;13.340;2023-01-15T03:34:23;0.70;;;0.50;;
16577;SDS011;8401;52.528;13.340;2023-01-15T03:36:50;1.50;;;0.60;;
16577;SDS011;8401;52.528;13.340;2023-01-15T03:39:16;0.50;;;0.50;;
16577;SDS011;8401;52.528;13.340;2023-01-15T03:41:48;1.03;;;0.60;;
16577;SDS011;8401;52.528;13.340;2023-01-15T03:44:31;1.83;;;0.70;;
16577;SDS011;8401;52.528;13.340;2023-01-15T03:52:41;0.53;;;0.40;;
16577;SDS011;8401;52.528;13.340;2023-01-15T03:55:11;0.77;;;0.50;;
16577;SDS011;8401;52.528;13.340;2023-01-15T03:57:50;0.93;;;0.60;;
16577;SDS011;8401;52.528;13.340;2023-01-15T04:00:42;0.67;;;0.40;;
16577;SDS011;8401;52.528;13.340;2023-01-15T04:03:13;0.80;;;0.30;;
16577;SDS011;8401;52.528;13.340;2023-01-15T04:05:41;0.60;;;0.43;;
16577;SDS011;8401;52.528;13.340;2023-01-15T04:08:07;1.90;;;0.40;;
16577;SDS011;8401;52.528;13.340;2023-01-15T04:10:35;0.97;;;0.40;;
16577;SDS011;8401;52.528;13.340;2023-01-15T04:13:00;0.70;;;0.37;;
16577;SDS011;8401;52.528;13.340;2023-01-15T04:15:26;2.00;;;0.80;;
16577;SDS011;8401;52.528;13.340;2023-01-15T04:17:52;0.60;;;0.37;;
16577;SDS011;8401;52.528;13.340;2023-01-15T04:20:17;0.83;;;0.30;;
16577;SDS011;8401;52.528;13.340;2023-01-15T04:22:43;0.97;;;0.80;;
16577;SDS011;8401;52.528;13.340;2023-01-15T04:25:09;0.40;;;0.40;;
16577;SDS011;8401;52.528;13.340;2023-01-15T04:27:34;0.93;;;0.70;;
16577;SDS011;8401;52.528;13.340;2023-01-15T04:30:00;0.30;;;0.20;;
16577;SDS011;8401;52.528;13.340;2023-01-15T04:32:26;1.50;;;0.50;;
16577;SDS011;8401;52.528;13.340;2023-01-15T04:34:51;2.23;;;0.43;;
16577;SDS011;8401;52.528;13.340;2023-01-15T04:37:17;1.53;;;0.33;;
16577;SDS011;8401;52.528;13.340;2023-01-15T04:39:43;0.90;;;0.30;;
16577;SDS011;8401;52.528;13.340;2023-01-15T04:42:12;1.07;;;0.17;;
16577;SDS011;8401;52.528;13.340;2023-01-15T04:44:57;1.40;;;0.20;;
16577;SDS011;8401;52.528;13.340;2023-01-15T04:47:22;1.93;;;0.30;;
16577;SDS011;8401;52.528;13.340;2023-01-15T04:49:48;0.73;;;0.40;;
16577;SDS011;8401;52.528;13.340;2023-01-15T04:52:14;1.47;;;0.53;;
16577;SDS011;8401;52.528;13.340;2023-01-15T04:54:40;2.50;;;0.30;;
16577;SDS011;8401;52.528;13.340;2023-01-15T04:57:06;0.57;;;0.40;;
16577;SDS011;8401;52.528;13.340;2023-01-15T04:59:31;1.90;;;0.43;;
16577;SDS011;8401;52.528;13.340;2023-01-15T05:01:57;0.73;;;0.23;;
16577;SDS011;8401;52.528;13.340;2023-01-15T05:04:23;0.83;;;0.30;;
16577;SDS011;8401;52.528;13.340;2023-01-15T05:06:48;0.70;;;0.50;;
16577;SDS011;8401;52.528;13.340;2023-01-15T05:09:14;0.30;;;0.10;;
16577;SDS011;8401;52.528;13.340;2023-01-15T05:11:40;0.57;;;0.47;;
16577;SDS011;8401;52.528;13.340;2023-01-15T05:14:06;0.73;;;0.33;;
16577;SDS011;8401;52.528;13.340;2023-01-15T05:16:32;2.33;;;0.60;;
16577;SDS011;8401;52.528;13.340;2023-01-15T05:18:59;2.07;;;0.20;;
16577;SDS011;8401;52.528;13.340;2023-01-15T05:21:30;1.67;;;0.37;;
16577;SDS011;8401;52.528;13.340;2023-01-15T05:23:58;2.00;;;0.30;;
16577;SDS011;8401;52.528;13.340;2023-01-15T05:26:25;1.53;;;0.30;;
16577;SDS011;8401;52.528;13.340;2023-01-15T05:28:52;2.57;;;0.50;;
16577;SDS011;8401;52.528;13.340;2023-01-15T05:31:19;2.10;;;0.50;;
16577;SDS011;8401;52.528;13.340;2023-01-15T05:33:45;0.53;;;0.30;;
16577;SDS011;8401;52.528;13.340;2023-01-15T05:36:13;1.23;;;0.30;;
16577;SDS011;8401;52.528;13.340;2023-01-15T05:38:40;0.70;;;0.33;;
16577;SDS011;8401;52.528;13.340;2023-01-15T05:41:07;1.53;;;0.40;;
16577;SDS011;8401;52.528;13.340;2023-01-15T05:43:53;2.20;;;0.37;;
16577;SDS011;8401;52.528;13.340;2023-01-15T05:46:20;1.53;;;0.30;;
16577;SDS011;8401;52.528;13.340;2023-01-15T05:48:46;0.80;;;0.50;;
16577;SDS011;8401;52.528;13.340;2023-01-15T05:51:12;0.63;;;0.30;;
16577;SDS011;8401;52.528;13.340;2023-01-15T05:53:38;4.17;;;0.50;;
16577;SDS011;8401;52.528;13.340;2023-01-15T05:56:04;0.83;;;0.20;;
16577;SDS011;8401;52.528;13.340;2023-01-15T05:58:31;0.80;;;0.30;;
16577;SDS011;8401;52.528;13.340;2023-01-15T06:00:56;0.87;;;0.30;;
16577;SDS011;8401;52.528;13.340;2023-01-15T06:03:23;1.47;;;0.30;;
16577;SDS011;8401;52.528;13.340;2023-01-15T06:05:53;1.60;;;0.40;;
16577;SDS011;8401;52.528;13.340;2023-01-15T06:08:19;1.00;;;0.30;;
16577;SDS011;8401;52.528;13.340;2023-01-15T06:10:46;0.93;;;0.40;;
16577;SDS011;8401;52.528;13.340;2023-01-15T06:13:12;0.30;;;0.23;;
16577;SDS011;8401;52.528;13.340;2023-01-15T06:15:38;0.23;;;0.20;;
16577;SDS011;8401;52.528;13.340;2023-01-15T06:18:05;0.80;;;0.30;;
16577;SDS011;8401;52.528;13.340;2023-01-15T06:20:31;0.53;;;0.20;;
16577;SDS011;8401;52.528;13.340;2023-01-15T06:23:00;2.47;;;0.50;;
16577;SDS011;8401;52.528;13.340;2023-01-15T06:25:25;0.70;;;0.17;;
16577;SDS011;8401;52.528;13.340;2023-01-15T06:27:51;1.23;;;0.60;;
16577;SDS011;8401;52.528;13.340;2023-01-15T06:30:17;0.53;;;0.40;;
16577;SDS011;8401;52.528;13.340;2023-01-15T06:32:43;1.47;;;0.33;;
16577;SDS011;8401;52.528;13.340;2023-01-15T06:35:09;0.70;;;0.40;;
16577;SDS011;8401;52.528;13.340;2023-01-15T06:37:34;0.50;;;0.30;;
16577;SDS011;8401;52.528;13.340;2023-01-15T06:40:00;1.10;;;0.53;;
16577;SDS011;8401;52.528;13.340;2023-01-15T06:42:26;0.40;;;0.30;;
16577;SDS011;8401;52.528;13.340;2023-01-15T06:45:10;0.80;;;0.40;;
16577;SDS011;8401;52.528;13.340;2023-01-15T06:47:55;1.60;;;0.43;;
16577;SDS011;8401;52.528;13.340;2023-01-15T06:50:21;0.67;;;0.30;;
16577;SDS011;8401;52.528;13.340;2023-01-15T06:52:47;0.67;;;0.20;;
16577;SDS011;8401;52.528;13.340;2023-01-15T06:55:13;2.67;;;0.70;;
16577;SDS011;8401;52.528;13.340;2023-01-15T06:57:39;1.90;;;0.40;;
16577;SDS011;8401;52.528;13.340;2023-01-15T07:00:08;1.83;;;0.23;;
16577;SDS011;8401;52.528;13.340;2023-01-15T07:02:34;0.93;;;0.60;;
16577;SDS011;8401;52.528;13.340;2023-01-15T07:05:00;1.10;;;0.40;;
16577;SDS011;8401;52.528;13.340;2023-01-15T07:07:26;1.97;;;0.47;;
16577;SDS011;8401;52.528;13.340;2023-01-15T07:09:52;0.33;;;0.30;;
16577;SDS011;8401;52.528;13.340;2023-01-15T07:12:18;1.70;;;0.80;;
16577;SDS011;8401;52.528;13.340;2023-01-15T07:14:44;1.07;;;0.50;;
16577;SDS011;8401;52.528;13.340;2023-01-15T07:17:10;1.47;;;0.60;;
16577;SDS011;8401;52.528;13.340;2023-01-15T07:19:36;1.60;;;0.60;;
16577;SDS011;8401;52.528;13.340;2023-01-15T07:22:02;1.33;;;0.53;;
16577;SDS011;8401;52.528;13.340;2023-01-15T07:24:29;1.77;;;0.40;;
16577;SDS011;8401;52.528;13.340;2023-01-15T07:26:54;0.97;;;0.40;;
16577;SDS011;8401;52.528;13.340;2023-01-15T07:29:20;0.43;;;0.40;;
16577;SDS011;8401;52.528;13.340;2023-01-15T07:31:47;1.00;;;0.50;;
16577;SDS011;8401;52.528;13.340;2023-01-15T07:34:13;1.77;;;0.43;;
16577;SDS011;8401;52.528;13.340;2023-01-15T07:36:38;0.87;;;0.47;;
16577;SDS011;8401;52.528;13.340;2023-01-15T07:39:05;1.27;;;0.60;;
16577;SDS011;8401;52.528;13.340;2023-01-15T07:41:32;0.40;;;0.40;;
16577;SDS011;8401;52.528;13.340;2023-01-15T07:44:16;0.70;;;0.50;;
16577;SDS011;8401;52.528;13.340;2023-01-15T07:47:00;0.67;;;0.40;;
16577;SDS011;8401;52.528;13.340;2023-01-15T07:49:45;0.50;;;0.30;;
16577;SDS011;8401;52.528;13.340;2023-01-15T07:52:19;1.63;;;0.87;;
16577;SDS011;8401;52.528;13.340;2023-01-15T07:54:46;2.20;;;0.50;;
16577;SDS011;8401;52.528;13.340;2023-01-15T07:57:14;2.10;;;0.50;;
16577;SDS011;8401;52.528;13.340;2023-01-15T07:59:43;0.90;;;0.60;;
16577;SDS011;8401;52.528;13.340;2023-01-15T08:02:08;0.70;;;0.50;;
16577;SDS011;8401;52.528;13.340;2023-01-15T08:04:34;1.37;;;0.87;;
16577;SDS011;8401;52.528;13.340;2023-01-15T08:07:01;2.83;;;0.60;;
16577;SDS011;8401;52.528;13.340;2023-01-15T08:09:28;0.83;;;0.40;;
16577;SDS011;8401;52.528;13.340;2023-01-15T08:11:54;3.43;;;0.70;;
16577;SDS011;8401;52.528;13.340;2023-01-15T08:14:38;1.93;;;0.73;;
16577;SDS011;8401;52.528;13.340;2023-01-15T08:17:22;0.40;;;0.40;;
16577;SDS011;8401;52.528;13.340;2023-01-15T08:19:48;5.47;;;1.20;;
16577;SDS011;8401;52.528;13.340;2023-01-15T08:22:14;0.83;;;0.60;;
16577;SDS011;8401;52.528;13.340;2023-01-15T08:24:39;1.00;;;0.50;;
16577;SDS011;8401;52.528;13.340;2023-01-15T08:27:05;1.37;;;0.50;;
16577;SDS011;8401;52.528;13.340;2023-01-15T08:29:30;0.43;;;0.43;;
16577;SDS011;8401;52.528;13.340;2023-01-15T08:31:56;2.07;;;0.80;;
16577;SDS011;8401;52.528;13.340;2023-01-15T08:34:21;1.30;;;0.80;;
16577;SDS011;8401;52.528;13.340;2023-01-15T08:36:48;1.90;;;0.87;;
16577;SDS011;8401;52.528;13.340;2023-01-15T08:39:17;2.40;;;1.30;;
16577;SDS011;8401;52.528;13.340;2023-01-15T08:41:42;2.70;;;1.60;;
16577;SDS011;8401;52.528;13.340;2023-01-15T08:44:08;1.60;;;0.93;;
16577;SDS011;8401;52.528;13.340;2023-01-15T08:46:34;1.23;;;0.70;;
16577;SDS011;8401;52.528;13.340;2023-01-15T08:49:03;1.37;;;0.77;;
16577;SDS011;8401;52.528;13.340;2023-01-15T08:51:28;1.60;;;1.17;;
16577;SDS011;8401;52.528;13.340;2023-01-15T08:53:54;1.10;;;0.70;;
16577;SDS011;8401;52.528;13.340;2023-01-15T08:56:19;2.67;;;0.90;;
16577;SDS011;8401;52.528;13.340;2023-01-15T08:58:45;1.43;;;0.93;;
16577;SDS011;8401;52.528;13.340;2023-01-15T09:01:12;1.23;;;0.77;;
16577;SDS011;8401;52.528;13.340;2023-01-15T09:03:40;1.30;;;0.70;;
16577;SDS011;8401;52.528;13.340;2023-01-15T09:06:06;2.60;;;0.70;;
16577;SDS011;8401;52.528;13.340;2023-01-15T09:08:33;2.33;;;0.90;;
16577;SDS011;8401;52.528;13.340;2023-01-15T09:10:59;1.17;;;0.60;;
16577;SDS011;8401;52.528;13.340;2023-01-15T09:13:26;0.87;;;0.70;;
16577;SDS011;8401;52.528;13.340;2023-01-15T09:15:53;1.37;;;0.60;;
16577;SDS011;8401;52.528;13.340;2023-01-15T09:18:22;1.47;;;0.60;;
16577;SDS011;8401;52.528;13.340;2023-01-15T09:20:48;2.23;;;0.40;;
16577;SDS011;8401;52.528;13.340;2023-01-15T09:23:14;0.50;;;0.50;;
16577;SDS011;8401;52.528;13.340;2023-01-15T09:25:40;0.83;;;0.60;;
16577;SDS011;8401;52.528;13.340;2023-01-15T09:28:14;2.67;;;1.73;;
16577;SDS011;8401;52.528;13.340;2023-01-15T09:30:40;1.80;;;1.33;;
16577;SDS011;8401;52.528;13.340;2023-01-15T09:33:05;1.67;;;1.00;;
16577;SDS011;8401;52.528;13.340;2023-01-15T09:35:31;1.63;;;1.30;;
16577;SDS011;8401;52.528;13.340;2023-01-15T09:37:57;1.10;;;0.90;;
16577;SDS011;8401;52.528;13.340;2023-01-15T09:46:20;1.70;;;1.30;;
16577;SDS011;8401;52.528;13.340;2023-01-15T09:51:44;2.07;;;1.17;;
16577;SDS011;8401;52.528;13.340;2023-01-15T09:57:12;1.90;;;0.80;;
16577;SDS011;8401;52.528;13.340;2023-01-15T09:59:40;1.07;;;0.80;;
16577;SDS011;8401;52.528;13.340;2023-01-15T10:02:20;1.80;;;0.97;;
16577;SDS011;8401;52.528;13.340;2023-01-15T10:13:26;4.90;;;1.53;;
16577;SDS011;8401;52.528;13.340;2023-01-15T10:16:05;3.43;;;0.90;;
16577;SDS011;8401;52.528;13.340;2023-01-15T10:18:32;1.57;;;0.83;;
16577;SDS011;8401;52.528;13.340;2023-01-15T10:27:05;1.33;;;0.77;;
16577;SDS011;8401;52.528;13.340;2023-01-15T10:30:10;0.90;;;0.70;;
16577;SDS011;8401;52.528;13.340;2023-01-15T10:32:49;1.30;;;0.60;;
16577;SDS011;8401;52.528;13.340;2023-01-15T10:46:25;1.50;;;0.83;;
16577;SDS011;8401;52.528;13.340;2023-01-15T10:49:01;1.63;;;0.77;;
16577;SDS011;8401;52.528;13.340;2023-01-15T10:51:40;1.37;;;0.87;;
16577;SDS011;8401;52.528;13.340;2023-01-15T10:54:15;2.60;;;0.77;;
16577;SDS011;8401;52.528;13.340;2023-01-15T10:56:56;2.57;;;0.93;;
16577;SDS011;8401;52.528;13.340;2023-01-15T10:59:58;2.17;;;0.60;;
16577;SDS011;8401;52.528;13.340;2023-01-15T11:02:29;3.00;;;0.70;;
16577;SDS011;8401;52.528;13.340;2023-01-15T11:05:16;1.83;;;0.70;;
16577;SDS011;8401;52.528;13.340;2023-01-15T11:07:47;1.63;;;0.90;;
16577;SDS011;8401;52.528;13.340;2023-01-15T11:10:16;1.27;;;0.70;;
16577;SDS011;8401;52.528;13.340;2023-01-15T11:12:49;1.40;;;0.63;;
16577;SDS011;8401;52.528;13.340;2023-01-15T11:15:38;0.63;;;0.57;;
16577;SDS011;8401;52.528;13.340;2023-01-15T11:18:24;0.80;;;0.77;;
16577;SDS011;8401;52.528;13.340;2023-01-15T11:21:14;1.70;;;0.83;;
16577;SDS011;8401;52.528;13.340;2023-01-15T11:23:43;2.73;;;1.00;;
16577;SDS011;8401;52.528;13.340;2023-01-15T11:26:09;1.27;;;0.70;;
16577;SDS011;8401;52.528;13.340;2023-01-15T11:28:48;1.40;;;1.00;;
16577;SDS011;8401;52.528;13.340;2023-01-15T11:31:15;1.10;;;0.60;;
16577;SDS011;8401;52.528;13.340;2023-01-15T11:34:00;0.90;;;0.70;;
16577;SDS011;8401;52.528;13.340;2023-01-15T11:36:29;2.23;;;0.90;;
16577;SDS011;8401;52.528;13.340;2023-01-15T11:38:55;1.67;;;0.97;;
16577;SDS011;8401;52.528;13.340;2023-01-15T11:43:56;3.47;;;0.80;;
16577;SDS011;8401;52.528;13.340;2023-01-15T11:46:44;0.73;;;0.60;;
16577;SDS011;8401;52.528;13.340;2023-01-15T11:49:29;1.70;;;0.80;;
16577;SDS011;8401;52.528;13.340;2023-01-15T11:52:18;1.67;;;0.87;;
16577;SDS011;8401;52.528;13.340;2023-01-15T11:54:48;1.00;;;0.60;;
16577;SDS011;8401;52.528;13.340;2023-01-15T11:57:26;1.70;;;0.70;;
16577;SDS011;8401;52.528;13.340;2023-01-15T11:59:55;0.70;;;0.60;;
16577;SDS011;8401;52.528;13.340;2023-01-15T12:02:32;2.63;;;0.70;;
16577;SDS011;8401;52.528;13.340;2023-01-15T12:07:41;1.67;;;0.70;;
16577;SDS011;8401;52.528;13.340;2023-01-15T12:10:24;1.40;;;0.90;;
16577;SDS011;8401;52.528;13.340;2023-01-15T12:15:56;0.73;;;0.63;;
16577;SDS011;8401;52.528;13.340;2023-01-15T12:21:34;2.00;;;0.67;;
16577;SDS011;8401;52.528;13.340;2023-01-15T12:26:37;3.53;;;0.67;;
16577;SDS011;8401;52.528;13.340;2023-01-15T12:29:26;1.67;;;0.73;;
16577;SDS011;8401;52.528;13.340;2023-01-15T12:32:04;2.20;;;0.80;;
16577;SDS011;8401;52.528;13.340;2023-01-15T12:34:44;1.00;;;0.53;;
16577;SDS011;8401;52.528;13.340;2023-01-15T12:40:29;0.60;;;0.50;;
16577;SDS011;8401;52.528;13.340;2023-01-15T12:42:37;2.63;;;0.70;;
16577;SDS011;8401;52.528;13.340;2023-01-15T12:45:24;1.67;;;0.97;;
16577;SDS011;8401;52.528;13.340;2023-01-15T12:53:48;1.40;;;0.90;;
16577;SDS011;8401;52.528;13.340;2023-01-15T13:01:20;3.53;;;1.50;;
16577;SDS011;8401;52.528;13.340;2023-01-15T13:03:50;3.13;;;1.20;;
16577;SDS011;8401;52.528;13.340;2023-01-15T13:06:37;1.53;;;0.63;;
16577;SDS011;8401;52.528;13.340;2023-01-15T13:09:12;2.97;;;1.03;;
16577;SDS011;8401;52.528;13.340;2023-01-15T13:11:47;2.77;;;0.70;;
16577;SDS011;8401;52.528;13.340;2023-01-15T13:14:15;1.87;;;0.70;;
16577;SDS011;8401;52.528;13.340;2023-01-15T13:16:53;1.87;;;0.70;;
16577;SDS011;8401;52.528;13.340;2023-01-15T13:22:46;1.87;;;0.77;;
16577;SDS011;8401;52.528;13.340;2023-01-15T13:36:47;1.87;;;1.30;;
16577;SDS011;8401;52.528;13.340;2023-01-15T13:39:16;2.03;;;1.20;;
16577;SDS011;8401;52.528;13.340;2023-01-15T13:41:50;2.67;;;0.90;;
16577;SDS011;8401;52.528;13.340;2023-01-15T13:44:43;3.00;;;0.80;;
16577;SDS011;8401;52.528;13.340;2023-01-15T13:47:19;3.13;;;0.77;;
16577;SDS011;8401;52.528;13.340;2023-01-15T13:49:52;2.97;;;1.00;;
16577;SDS011;8401;52.528;13.340;2023-01-15T13:52:34;1.70;;;1.00;;
16577;SDS011;8401;52.528;13.340;2023-01-15T13:57:53;3.23;;;0.70;;
16577;SDS011;8401;52.528;13.340;2023-01-15T14:00:30;1.50;;;0.70;;
16577;SDS011;8401;52.528;13.340;2023-01-15T14:02:58;1.90;;;0.70;;
16577;SDS011;8401;52.528;13.340;2023-01-15T14:07:51;1.43;;;1.33;;
16577;SDS011;8401;52.528;13.340;2023-01-15T14:12:52;0.97;;;0.67;;
16577;SDS011;8401;52.528;13.340;2023-01-15T14:15:53;2.20;;;0.80;;
16577;SDS011;8401;52.528;13.340;2023-01-15T14:18:41;3.07;;;0.97;;
16577;SDS011;8401;52.528;13.340;2023-01-15T14:26:26;1.47;;;0.70;;
16577;SDS011;8401;52.528;13.340;2023-01-15T14:36:58;2.87;;;1.37;;
16577;SDS011;8401;52.528;13.340;2023-01-15T14:39:47;1.80;;;0.90;;
16577;SDS011;8401;52.528;13.340;2023-01-15T14:42:23;3.13;;;1.43;;
16577;SDS011;8401;52.528;13.340;2023-01-15T14:45:18;1.77;;;0.70;;
16577;SDS011;8401;52.528;13.340;2023-01-15T14:47:57;3.90;;;2.33;;
16577;SDS011;8401;52.528;13.340;2023-01-15T14:50:34;2.77;;;1.40;;
16577;SDS011;8401;52.528;13.340;2023-01-15T14:55:48;2.23;;;0.80;;
16577;SDS011;8401;52.528;13.340;2023-01-15T14:58:43;3.93;;;1.40;;
16577;SDS011;8401;52.528;13.340;2023-01-15T15:07:19;2.53;;;0.73;;
16577;SDS011;8401;52.528;13.340;2023-01-15T15:12:48;2.70;;;0.80;;
16577;SDS011;8401;52.528;13.340;2023-01-15T15:23:11;1.20;;;0.77;;
16577;SDS011;8401;52.528;13.340;2023-01-15T15:26:06;1.30;;;0.70;;
16577;SDS011;8401;52.528;13.340;2023-01-15T15:34:17;1.50;;;0.90;;
16577;SDS011;8401;52.528;13.340;2023-01-15T15:36:51;2.70;;;0.80;;
16577;SDS011;8401;52.528;13.340;2023-01-15T15:39:23;2.97;;;0.80;;
16577;SDS011;8401;52.528;13.340;2023-01-15T15:41:54;2.53;;;0.97;;
16577;SDS011;8401;52.528;13.340;2023-01-15T15:44:52;2.17;;;0.93;;
16577;SDS011;8401;52.528;13.340;2023-01-15T15:47:40;2.00;;;0.70;;
16577;SDS011;8401;52.528;13.340;2023-01-15T15:50:26;3.13;;;1.50;;
16577;SDS011;8401;52.528;13.340;2023-01-15T15:52:56;2.97;;;1.60;;
16577;SDS011;8401;52.528;13.340;2023-01-15T15:55:24;1.63;;;0.90;;
16577;SDS011;8401;52.528;13.340;2023-01-15T15:57:56;3.27;;;1.30;;
16577;SDS011;8401;52.528;13.340;2023-01-15T16:00:43;2.13;;;1.20;;
16577;SDS011;8401;52.528;13.340;2023-01-15T16:03:19;0.97;;;0.70;;
16577;SDS011;8401;52.528;13.340;2023-01-15T16:05:57;2.13;;;0.90;;
16577;SDS011;8401;52.528;13.340;2023-01-15T16:08:25;1.97;;;0.93;;
16577;SDS011;8401;52.528;13.340;2023-01-15T16:10:52;4.10;;;1.40;;
16577;SDS011;8401;52.528;13.340;2023-01-15T16:13:27;3.73;;;1.70;;
16577;SDS011;8401;52.528;13.340;2023-01-15T16:15:58;2.23;;;1.50;;
16577;SDS011;8401;52.528;13.340;2023-01-15T16:20:52;6.80;;;1.60;;
16577;SDS011;8401;52.528;13.340;2023-01-15T16:23:19;3.33;;;1.43;;
16577;SDS011;8401;52.528;13.340;2023-01-15T16:26:09;1.10;;;0.80;;
16577;SDS011;8401;52.528;13.340;2023-01-15T16:28:45;2.93;;;1.27;;
16577;SDS011;8401;52.528;13.340;2023-01-15T16:31:15;4.20;;;1.00;;
16577;SDS011;8401;52.528;13.340;2023-01-15T16:33:42;3.20;;;1.30;;
16577;SDS011;8401;52.528;13.340;2023-01-15T16:36:08;1.43;;;0.90;;
16577;SDS011;8401;52.528;13.340;2023-01-15T16:38:35;1.30;;;1.00;;
16577;SDS011;8401;52.528;13.340;2023-01-15T16:41:06;2.30;;;1.17;;
16577;SDS011;8401;52.528;13.340;2023-01-15T16:44:03;2.13;;;1.53;;
16577;SDS011;8401;52.528;13.340;2023-01-15T16:46:31;3.10;;;1.00;;
16577;SDS011;8401;52.528;13.340;2023-01-15T16:51:47;2.10;;;0.80;;
16577;SDS011;8401;52.528;13.340;2023-01-15T17:01:52;3.50;;;1.40;;
16577;SDS011;8401;52.528;13.340;2023-01-15T17:09:26;3.50;;;1.30;;
16577;SDS011;8401;52.528;13.340;2023-01-15T17:11:54;3.70;;;1.07;;
16577;SDS011;8401;52.528;13.340;2023-01-15T17:14:21;1.80;;;1.03;;
16577;SDS011;8401;52.528;13.340;2023-01-15T17:16:48;1.50;;;0.80;;
16577;SDS011;8401;52.528;13.340;2023-01-15T17:19:42;0.93;;;0.90;;
16577;SDS011;8401;52.528;13.340;2023-01-15T17:22:15;1.67;;;1.00;;
16577;SDS011;8401;52.528;13.340;2023-01-15T17:24:53;2.00;;;1.10;;
16577;SDS011;8401;52.528;13.340;2023-01-15T17:27:20;2.13;;;1.13;;
16577;SDS011;8401;52.528;13.340;2023-01-15T17:29:46;3.90;;;1.20;;
16577;SDS011;8401;52.528;13.340;2023-01-15T17:34:54;2.90;;;1.00;;
16577;SDS011;8401;52.528;13.340;2023-01-15T17:37:20;2.47;;;1.20;;
16577;SDS011;8401;52.528;13.340;2023-01-15T17:39:46;1.87;;;1.00;;
16577;SDS011;8401;52.528;13.340;2023-01-15T17:42:16;2.93;;;0.80;;
16577;SDS011;8401;52.528;13.340;2023-01-15T17:44:43;2.10;;;0.93;;
16577;SDS011;8401;52.528;13.340;2023-01-15T17:47:09;2.70;;;1.00;;
16577;SDS011;8401;52.528;13.340;2023-01-15T17:49:35;1.10;;;0.70;;
16577;SDS011;8401;52.528;13.340;2023-01-15T17:52:01;2.87;;;0.80;;